Página principal
METAR-TAF:

METAR-TAF

Aeroportos :

El Hierro, Espanha

latitude: 27-49N, longitude: 017-53W, altura: 32 m

Observação actual do tempo

O boletim foi feito há 28 minutos, às 20:30 UTC
Vento 12 kt de norte, variando entre nor-noroeste e nordeste
Temperatura 23°C
Humidade 78%
Pressão 1018 hPa
Visibilidade 10 km ou mais

METAR: GCHI 172030Z AUTO 01012KT 340V050 9999 BKN016/// 23/19 Q1018

Hora: 21:58 (20:58 UTC)

Previsão

O boletim foi feito há 58 minutos, às 20:00 UTC
Previsão válida de 17 às 21 UTC a 18 às 21 UTC
Vento 12 kt de norte
Visibilidade 10 km ou mais
Nuvens dispersasa uma altura de 3000 ft
Probabilidade 30% :
Temporariamente
de 17 às 21 UTC a 18 às 09 UTC
chuvisco

TAF: GCHI 172000Z 1721/1821 36012KT 9999 SCT030 TX25/1815Z TN21/1805Z PROB30 TEMPO 1721/1809 DZ

Observações e previsões do tempo de mais de 4000 aeroportos (mensagens METAR e TAF).

As estações disponíveis são os pontos amarelos e vermelhos sobre o mapa.

Mova o rato sobre o mapa para ver o nome da estação.

Depois clique no ponto para visualizar as observações e previsões meteorológicas.

Para alterar o mapa : clique nos botões verdes com uma cruz preta para aumentar o zoom; no botão verde com uma pitada de zoom; ou nas setas verdes para mapas adjacentes.


METAR-TAF: